sensor_id;sensor_type;location;lat;lon;timestamp;pressure;altitude;pressure_sealevel;temperature;humidity
10992;BME280;5549;47.028;15.514;2022-08-21T00:00:54;96257.31;;;21.33;50.78
10992;BME280;5549;47.028;15.514;2022-08-21T00:03:21;96257.50;;;21.31;50.83
10992;BME280;5549;47.028;15.514;2022-08-21T00:05:50;96252.97;;;21.25;50.53
10992;BME280;5549;47.028;15.514;2022-08-21T00:08:21;96257.28;;;21.26;50.65
10992;BME280;5549;47.028;15.514;2022-08-21T00:10:50;96255.44;;;21.27;50.58
10992;BME280;5549;47.028;15.514;2022-08-21T00:13:19;96252.97;;;21.25;50.34
10992;BME280;5549;47.028;15.514;2022-08-21T00:15:48;96251.34;;;21.24;50.34
10992;BME280;5549;47.028;15.514;2022-08-21T00:18:19;96255.03;;;21.23;50.64
10992;BME280;5549;47.028;15.514;2022-08-21T00:20:47;96242.28;;;21.25;50.94
10992;BME280;5549;47.028;15.514;2022-08-21T00:23:17;96240.66;;;21.24;51.24
10992;BME280;5549;47.028;15.514;2022-08-21T00:25:47;96240.84;;;21.23;50.75
10992;BME280;5549;47.028;15.514;2022-08-21T00:28:17;96238.56;;;21.20;51.03
10992;BME280;5549;47.028;15.514;2022-08-21T00:30:45;96241.44;;;21.18;51.13
10992;BME280;5549;47.028;15.514;2022-08-21T00:33:13;96236.09;;;21.18;50.55
10992;BME280;5549;47.028;15.514;2022-08-21T00:35:43;96234.03;;;21.20;50.12
10992;BME280;5549;47.028;15.514;2022-08-21T00:38:13;96233.00;;;21.21;49.93
10992;BME280;5549;47.028;15.514;2022-08-21T00:40:49;96231.00;;;21.23;50.56
10992;BME280;5549;47.028;15.514;2022-08-21T00:43:24;96224.63;;;21.24;50.41
10992;BME280;5549;47.028;15.514;2022-08-21T00:45:52;96227.91;;;21.26;50.57
10992;BME280;5549;47.028;15.514;2022-08-21T00:48:21;96228.13;;;21.25;50.21
10992;BME280;5549;47.028;15.514;2022-08-21T00:50:58;96221.34;;;21.22;50.30
10992;BME280;5549;47.028;15.514;2022-08-21T00:53:28;96218.66;;;21.22;50.70
10992;BME280;5549;47.028;15.514;2022-08-21T00:55:57;96213.91;;;21.18;50.52
10992;BME280;5549;47.028;15.514;2022-08-21T00:58:29;96222.34;;;21.21;49.99
10992;BME280;5549;47.028;15.514;2022-08-21T01:01:06;96208.81;;;21.23;50.23
10992;BME280;5549;47.028;15.514;2022-08-21T01:03:37;96216.63;;;21.24;50.25
10992;BME280;5549;47.028;15.514;2022-08-21T01:06:13;96219.50;;;21.23;49.76
10992;BME280;5549;47.028;15.514;2022-08-21T01:08:53;96220.94;;;21.25;50.02
10992;BME280;5549;47.028;15.514;2022-08-21T01:11:42;96220.47;;;21.22;50.35
10992;BME280;5549;47.028;15.514;2022-08-21T01:14:13;96220.94;;;21.25;51.08
10992;BME280;5549;47.028;15.514;2022-08-21T01:16:51;96222.56;;;21.26;50.83
10992;BME280;5549;47.028;15.514;2022-08-21T01:19:22;96213.13;;;21.24;51.33
10992;BME280;5549;47.028;15.514;2022-08-21T01:21:52;96216.38;;;21.19;51.46
10992;BME280;5549;47.028;15.514;2022-08-21T01:24:23;96213.91;;;21.18;51.33
10992;BME280;5549;47.028;15.514;2022-08-21T01:26:54;96215.53;;;21.19;51.12
10992;BME280;5549;47.028;15.514;2022-08-21T01:29:31;96220.69;;;21.20;50.45
10992;BME280;5549;47.028;15.514;2022-08-21T01:32:07;96221.34;;;21.22;50.52
10992;BME280;5549;47.028;15.514;2022-08-21T01:34:40;96217.63;;;21.23;50.47
10992;BME280;5549;47.028;15.514;2022-08-21T01:37:12;96221.75;;;21.26;50.49
10992;BME280;5549;47.028;15.514;2022-08-21T01:39:42;96216.22;;;21.27;50.09
10992;BME280;5549;47.028;15.514;2022-08-21T01:42:11;96206.13;;;21.23;49.23
10992;BME280;5549;47.028;15.514;2022-08-21T01:44:40;96213.94;;;21.24;49.88
10992;BME280;5549;47.028;15.514;2022-08-21T01:47:11;96208.59;;;21.24;50.13
10992;BME280;5549;47.028;15.514;2022-08-21T01:49:43;96199.97;;;21.22;50.58
10992;BME280;5549;47.028;15.514;2022-08-21T01:52:12;96199.97;;;21.22;50.53
10992;BME280;5549;47.028;15.514;2022-08-21T01:54:41;96194.44;;;21.24;50.12
10992;BME280;5549;47.028;15.514;2022-08-21T01:57:17;96196.06;;;21.25;49.38
10992;BME280;5549;47.028;15.514;2022-08-21T01:59:49;96192.16;;;21.27;49.12
10992;BME280;5549;47.028;15.514;2022-08-21T02:02:19;96191.16;;;21.28;49.05
10992;BME280;5549;47.028;15.514;2022-08-21T02:04:49;96189.28;;;21.29;49.12
10992;BME280;5549;47.028;15.514;2022-08-21T02:07:18;96184.56;;;21.24;49.72
10992;BME280;5549;47.028;15.514;2022-08-21T02:09:46;96178.78;;;21.21;49.24
10992;BME280;5549;47.028;15.514;2022-08-21T02:12:13;96173.66;;;21.19;49.78
10992;BME280;5549;47.028;15.514;2022-08-21T02:14:42;96170.78;;;21.21;49.97
10992;BME280;5549;47.028;15.514;2022-08-21T02:17:12;96168.31;;;21.19;49.75
10992;BME280;5549;47.028;15.514;2022-08-21T02:19:44;96173.66;;;21.19;49.65
10992;BME280;5549;47.028;15.514;2022-08-21T02:22:12;96170.34;;;21.17;49.78
10992;BME280;5549;47.028;15.514;2022-08-21T02:24:43;96170.75;;;21.14;50.30
10992;BME280;5549;47.028;15.514;2022-08-21T02:27:12;96174.03;;;21.09;49.94
10992;BME280;5549;47.028;15.514;2022-08-21T02:29:44;96171.78;;;21.13;50.21
10992;BME280;5549;47.028;15.514;2022-08-21T02:32:13;96163.78;;;21.13;50.26
10992;BME280;5549;47.028;15.514;2022-08-21T02:34:43;96164.00;;;21.11;50.68
10992;BME280;5549;47.028;15.514;2022-08-21T02:37:13;96155.97;;;21.05;49.80
10992;BME280;5549;47.028;15.514;2022-08-21T02:39:47;96160.09;;;21.07;49.89
10992;BME280;5549;47.028;15.514;2022-08-21T02:42:14;96158.22;;;21.08;50.73
10992;BME280;5549;47.028;15.514;2022-08-21T02:44:44;96155.56;;;21.08;50.10
10992;BME280;5549;47.028;15.514;2022-08-21T02:47:14;96159.25;;;21.07;50.22
10992;BME280;5549;47.028;15.514;2022-08-21T02:49:42;96155.97;;;21.05;49.48
10992;BME280;5549;47.028;15.514;2022-08-21T02:52:09;96148.56;;;21.07;50.05
10992;BME280;5549;47.028;15.514;2022-08-21T02:54:37;96151.44;;;21.05;50.27
10992;BME280;5549;47.028;15.514;2022-08-21T02:57:07;96154.75;;;21.07;50.43
10992;BME280;5549;47.028;15.514;2022-08-21T02:59:34;96148.78;;;21.05;50.27
10992;BME280;5549;47.028;15.514;2022-08-21T03:02:05;96148.38;;;21.02;49.82
10992;BME280;5549;47.028;15.514;2022-08-21T03:04:33;96154.31;;;21.04;50.32
10992;BME280;5549;47.028;15.514;2022-08-21T03:07:03;96157.00;;;21.04;50.54
10992;BME280;5549;47.028;15.514;2022-08-21T03:09:33;96150.22;;;21.01;50.29
10992;BME280;5549;47.028;15.514;2022-08-21T03:12:01;96154.72;;;21.01;49.88
10992;BME280;5549;47.028;15.514;2022-08-21T03:14:31;96158.44;;;21.00;49.82
10992;BME280;5549;47.028;15.514;2022-08-21T03:16:58;96161.72;;;21.02;49.89
10992;BME280;5549;47.028;15.514;2022-08-21T03:19:26;96160.06;;;21.01;49.82
10992;BME280;5549;47.028;15.514;2022-08-21T03:21:54;96163.16;;;20.98;49.44
10992;BME280;5549;47.028;15.514;2022-08-21T03:24:24;96161.72;;;20.95;49.45
10992;BME280;5549;47.028;15.514;2022-08-21T03:26:54;96160.06;;;20.94;49.55
10992;BME280;5549;47.028;15.514;2022-08-21T03:29:23;96157.19;;;20.96;49.53
10992;BME280;5549;47.028;15.514;2022-08-21T03:31:52;96159.66;;;20.97;49.74
10992;BME280;5549;47.028;15.514;2022-08-21T03:34:21;96162.53;;;20.96;49.81
10992;BME280;5549;47.028;15.514;2022-08-21T03:36:51;96159.03;;;20.95;49.58
10992;BME280;5549;47.028;15.514;2022-08-21T03:39:22;96159.88;;;20.96;49.35
10992;BME280;5549;47.028;15.514;2022-08-21T03:41:50;96161.91;;;20.94;48.88
10992;BME280;5549;47.028;15.514;2022-08-21T03:44:21;96168.91;;;20.95;49.05
10992;BME280;5549;47.028;15.514;2022-08-21T03:46:51;96168.91;;;20.95;49.56
10992;BME280;5549;47.028;15.514;2022-08-21T03:49:18;96160.06;;;20.94;49.26
10992;BME280;5549;47.028;15.514;2022-08-21T03:51:48;96160.06;;;20.94;49.43
10992;BME280;5549;47.028;15.514;2022-08-21T03:54:18;96161.28;;;20.92;49.79
10992;BME280;5549;47.028;15.514;2022-08-21T03:56:48;96164.38;;;20.89;49.36
10992;BME280;5549;47.028;15.514;2022-08-21T03:59:15;96163.75;;;20.87;49.66
10992;BME280;5549;47.028;15.514;2022-08-21T04:01:54;96166.19;;;20.81;49.97
10992;BME280;5549;47.028;15.514;2022-08-21T04:04:22;96162.66;;;20.74;50.48
10992;BME280;5549;47.028;15.514;2022-08-21T04:06:50;96155.88;;;20.72;51.00
10992;BME280;5549;47.028;15.514;2022-08-21T04:09:18;96153.81;;;20.67;51.73
10992;BME280;5549;47.028;15.514;2022-08-21T04:11:46;96156.28;;;20.62;51.51
10992;BME280;5549;47.028;15.514;2022-08-21T04:14:14;96158.72;;;20.57;52.40
10992;BME280;5549;47.028;15.514;2022-08-21T04:16:42;96164.25;;;20.49;53.19
10992;BME280;5549;47.028;15.514;2022-08-21T04:19:12;96158.88;;;20.42;53.34
10992;BME280;5549;47.028;15.514;2022-08-21T04:21:42;96167.28;;;20.39;53.71
10992;BME280;5549;47.028;15.514;2022-08-21T04:24:11;96168.47;;;20.37;53.86
10992;BME280;5549;47.028;15.514;2022-08-21T04:26:38;96170.13;;;20.38;53.96
10992;BME280;5549;47.028;15.514;2022-08-21T04:29:09;96160.47;;;20.37;53.86
10992;BME280;5549;47.028;15.514;2022-08-21T04:31:36;96170.13;;;20.38;54.19
10992;BME280;5549;47.028;15.514;2022-08-21T04:34:06;96174.25;;;20.40;54.14
10992;BME280;5549;47.028;15.514;2022-08-21T04:36:38;96177.34;;;20.44;53.46
10992;BME280;5549;47.028;15.514;2022-08-21T04:39:08;96172.25;;;20.49;53.67
10992;BME280;5549;47.028;15.514;2022-08-21T04:41:36;96180.88;;;20.58;52.98
10992;BME280;5549;47.028;15.514;2022-08-21T04:44:06;96180.09;;;20.64;53.31
10992;BME280;5549;47.028;15.514;2022-08-21T04:46:35;96183.59;;;20.71;53.51
10992;BME280;5549;47.028;15.514;2022-08-21T04:49:02;96193.66;;;20.75;53.60
10992;BME280;5549;47.028;15.514;2022-08-21T04:51:33;96183.00;;;20.75;53.69
10992;BME280;5549;47.028;15.514;2022-08-21T04:54:09;96182.59;;;20.78;53.35
10992;BME280;5549;47.028;15.514;2022-08-21T04:56:42;96191.25;;;20.80;53.72
10992;BME280;5549;47.028;15.514;2022-08-21T04:59:18;96184.06;;;20.81;53.97
10992;BME280;5549;47.028;15.514;2022-08-21T05:01:46;96185.91;;;20.80;53.96
10992;BME280;5549;47.028;15.514;2022-08-21T05:04:21;96191.25;;;20.80;54.25
10992;BME280;5549;47.028;15.514;2022-08-21T05:06:50;96194.75;;;20.81;54.00
10992;BME280;5549;47.028;15.514;2022-08-21T05:09:24;96199.88;;;20.83;53.08
10992;BME280;5549;47.028;15.514;2022-08-21T05:11:54;96194.34;;;20.84;53.01
10992;BME280;5549;47.028;15.514;2022-08-21T05:14:22;96199.47;;;20.86;52.46
10992;BME280;5549;47.028;15.514;2022-08-21T05:16:50;96199.88;;;20.83;51.34
10992;BME280;5549;47.028;15.514;2022-08-21T05:19:17;96197.81;;;20.85;52.18
10992;BME280;5549;47.028;15.514;2022-08-21T05:21:47;96196.63;;;20.94;52.41
10992;BME280;5549;47.028;15.514;2022-08-21T05:24:16;96200.75;;;21.03;54.53
10992;BME280;5549;47.028;15.514;2022-08-21T05:26:45;96203.19;;;21.04;54.15
10992;BME280;5549;47.028;15.514;2022-08-21T05:29:15;96211.63;;;21.08;54.85
10992;BME280;5549;47.028;15.514;2022-08-21T05:31:42;96209.38;;;21.05;55.17
10992;BME280;5549;47.028;15.514;2022-08-21T05:34:11;96211.22;;;21.04;55.60
10992;BME280;5549;47.028;15.514;2022-08-21T05:36:41;96214.72;;;21.05;55.42
10992;BME280;5549;47.028;15.514;2022-08-21T05:39:11;96210.19;;;21.05;56.73
10992;BME280;5549;47.028;15.514;2022-08-21T05:41:39;96226.41;;;21.04;56.14
10992;BME280;5549;47.028;15.514;2022-08-21T05:44:08;96223.94;;;21.09;55.90
10992;BME280;5549;47.028;15.514;2022-08-21T05:46:38;96222.13;;;21.16;56.73
10992;BME280;5549;47.028;15.514;2022-08-21T05:49:08;96234.28;;;21.25;56.92
10992;BME280;5549;47.028;15.514;2022-08-21T05:51:39;96237.59;;;21.40;58.74
10992;BME280;5549;47.028;15.514;2022-08-21T05:54:10;96237.38;;;21.55;58.37
10992;BME280;5549;47.028;15.514;2022-08-21T05:56:38;96242.31;;;21.71;59.31
10992;BME280;5549;47.028;15.514;2022-08-21T05:59:05;96235.13;;;21.85;59.43
10992;BME280;5549;47.028;15.514;2022-08-21T06:01:38;96231.59;;;21.98;58.35
10992;BME280;5549;47.028;15.514;2022-08-21T06:04:06;96243.56;;;22.08;57.59
10992;BME280;5549;47.028;15.514;2022-08-21T06:06:34;96243.34;;;22.17;57.14
10992;BME280;5549;47.028;15.514;2022-08-21T06:09:03;96240.44;;;22.25;56.74
10992;BME280;5549;47.028;15.514;2022-08-21T06:11:34;96250.28;;;22.31;57.00
10992;BME280;5549;47.028;15.514;2022-08-21T06:14:04;96241.44;;;22.37;56.20
10992;BME280;5549;47.028;15.514;2022-08-21T06:16:32;96244.50;;;22.40;54.98
10992;BME280;5549;47.028;15.514;2022-08-21T06:19:01;96247.56;;;22.44;52.82
10992;BME280;5549;47.028;15.514;2022-08-21T06:21:31;96246.75;;;22.50;53.05
10992;BME280;5549;47.028;15.514;2022-08-21T06:23:59;96246.94;;;22.55;52.68
10992;BME280;5549;47.028;15.514;2022-08-21T06:26:30;96250.44;;;22.62;52.58
10992;BME280;5549;47.028;15.514;2022-08-21T06:28:57;96247.09;;;22.73;53.44
10992;BME280;5549;47.028;15.514;2022-08-21T06:31:27;96252.03;;;22.83;54.14
10992;BME280;5549;47.028;15.514;2022-08-21T06:33:55;96254.44;;;22.91;53.77
10992;BME280;5549;47.028;15.514;2022-08-21T06:36:27;96253.56;;;23.04;53.54
10992;BME280;5549;47.028;15.514;2022-08-21T06:38:57;96249.38;;;23.15;53.08
10992;BME280;5549;47.028;15.514;2022-08-21T06:41:26;96262.91;;;23.26;52.96
10992;BME280;5549;47.028;15.514;2022-08-21T06:43:55;96257.72;;;23.31;53.92
10992;BME280;5549;47.028;15.514;2022-08-21T06:46:24;96263.09;;;23.31;55.82
10992;BME280;5549;47.028;15.514;2022-08-21T06:48:52;96253.59;;;23.35;55.35
10992;BME280;5549;47.028;15.514;2022-08-21T06:51:25;96259.53;;;23.38;55.35
10992;BME280;5549;47.028;15.514;2022-08-21T06:53:56;96258.47;;;23.45;55.12
10992;BME280;5549;47.028;15.514;2022-08-21T06:56:24;96255.34;;;23.55;54.54
10992;BME280;5549;47.028;15.514;2022-08-21T06:58:55;96266.81;;;23.62;54.23
10992;BME280;5549;47.028;15.514;2022-08-21T07:01:25;96261.63;;;23.67;54.04
10992;BME280;5549;47.028;15.514;2022-08-21T07:03:56;96275.00;;;23.74;53.99
10992;BME280;5549;47.028;15.514;2022-08-21T07:06:27;96271.22;;;23.81;53.69
10992;BME280;5549;47.028;15.514;2022-08-21T07:08:55;96267.06;;;23.85;54.03
10992;BME280;5549;47.028;15.514;2022-08-21T07:11:25;96264.97;;;23.87;53.17
10992;BME280;5549;47.028;15.514;2022-08-21T07:13:53;96266.63;;;23.88;53.04
10992;BME280;5549;47.028;15.514;2022-08-21T07:16:23;96271.53;;;23.91;53.00
10992;BME280;5549;47.028;15.514;2022-08-21T07:18:50;96269.69;;;23.92;53.29
10992;BME280;5549;47.028;15.514;2022-08-21T07:21:18;96264.09;;;23.93;52.99
10992;BME280;5549;47.028;15.514;2022-08-21T07:23:51;96264.47;;;23.97;52.95
10992;BME280;5549;47.028;15.514;2022-08-21T07:26:21;96266.94;;;23.98;52.66
10992;BME280;5549;47.028;15.514;2022-08-21T07:28:52;96266.94;;;23.98;52.37
10992;BME280;5549;47.028;15.514;2022-08-21T07:31:25;96263.81;;;24.02;52.43
10992;BME280;5549;47.028;15.514;2022-08-21T07:33:53;96272.47;;;24.04;52.36
10992;BME280;5549;47.028;15.514;2022-08-21T07:36:22;96275.16;;;24.04;51.65
10992;BME280;5549;47.028;15.514;2022-08-21T07:38:51;96267.69;;;24.06;52.10
10992;BME280;5549;47.028;15.514;2022-08-21T07:41:25;96262.94;;;24.08;51.42
10992;BME280;5549;47.028;15.514;2022-08-21T07:43:55;96277.31;;;24.13;51.32
10992;BME280;5549;47.028;15.514;2022-08-21T07:46:26;96274.25;;;24.10;51.63
10992;BME280;5549;47.028;15.514;2022-08-21T07:48:54;96270.38;;;24.06;52.94
10992;BME280;5549;47.028;15.514;2022-08-21T07:51:27;96276.69;;;23.93;56.85
10992;BME280;5549;47.028;15.514;2022-08-21T07:53:58;96274.06;;;23.86;57.44
10992;BME280;5549;47.028;15.514;2022-08-21T07:56:26;96280.91;;;23.82;57.05
10992;BME280;5549;47.028;15.514;2022-08-21T07:58:55;96269.97;;;23.84;56.75
10992;BME280;5549;47.028;15.514;2022-08-21T08:01:26;96278.81;;;23.84;56.17
10992;BME280;5549;47.028;15.514;2022-08-21T08:03:54;96277.78;;;23.85;55.55
10992;BME280;5549;47.028;15.514;2022-08-21T08:06:24;96277.13;;;23.90;56.35
10992;BME280;5549;47.028;15.514;2022-08-21T08:08:52;96271.31;;;23.93;55.30
10992;BME280;5549;47.028;15.514;2022-08-21T08:11:24;96266.34;;;23.96;53.64
10992;BME280;5549;47.028;15.514;2022-08-21T08:13:53;96269.41;;;24.00;52.36
10992;BME280;5549;47.028;15.514;2022-08-21T08:16:21;96261.72;;;24.04;50.41
10992;BME280;5549;47.028;15.514;2022-08-21T08:18:48;96255.94;;;24.07;49.85
10992;BME280;5549;47.028;15.514;2022-08-21T08:21:19;96270.38;;;24.06;49.97
10992;BME280;5549;47.028;15.514;2022-08-21T08:23:49;96274.94;;;23.80;48.23
10992;BME280;5549;47.028;15.514;2022-08-21T08:26:18;96269.56;;;23.80;48.36
10992;BME280;5549;47.028;15.514;2022-08-21T08:28:47;96262.84;;;23.71;49.10
10992;BME280;5549;47.028;15.514;2022-08-21T08:31:17;96265.19;;;23.61;49.01
10992;BME280;5549;47.028;15.514;2022-08-21T08:33:45;96271.53;;;23.66;49.85
10992;BME280;5549;47.028;15.514;2022-08-21T08:36:17;96267.66;;;23.62;49.51
10992;BME280;5549;47.028;15.514;2022-08-21T08:38:47;96266.56;;;23.70;49.83
10992;BME280;5549;47.028;15.514;2022-08-21T08:41:20;96272.53;;;23.72;50.26
10992;BME280;5549;47.028;15.514;2022-08-21T08:43:55;96265.00;;;23.56;47.98
10992;BME280;5549;47.028;15.514;2022-08-21T08:46:34;96274.25;;;23.28;47.06
10992;BME280;5549;47.028;15.514;2022-08-21T08:49:11;96272.41;;;23.22;47.51
10992;BME280;5549;47.028;15.514;2022-08-21T08:51:46;96279.16;;;23.31;49.77
10992;BME280;5549;47.028;15.514;2022-08-21T08:54:24;96280.38;;;23.35;48.94
10992;BME280;5549;47.028;15.514;2022-08-21T08:57:00;96281.41;;;23.34;48.70
10992;BME280;5549;47.028;15.514;2022-08-21T08:59:39;96272.81;;;23.26;47.66
10992;BME280;5549;47.028;15.514;2022-08-21T09:02:12;96271.91;;;23.39;48.73
10992;BME280;5549;47.028;15.514;2022-08-21T09:04:41;96285.66;;;23.49;49.74
10992;BME280;5549;47.028;15.514;2022-08-21T09:07:20;96289.25;;;23.36;50.03
10992;BME280;5549;47.028;15.514;2022-08-21T09:10:06;96275.53;;;23.51;50.68
10992;BME280;5549;47.028;15.514;2022-08-21T09:12:48;96272.63;;;23.59;51.60
10992;BME280;5549;47.028;15.514;2022-08-21T09:15:29;96266.78;;;23.68;51.26
10992;BME280;5549;47.028;15.514;2022-08-21T09:18:18;96272.75;;;23.71;50.89
10992;BME280;5549;47.028;15.514;2022-08-21T09:21:09;96270.44;;;23.74;51.50
10992;BME280;5549;47.028;15.514;2022-08-21T09:23:50;96273.72;;;23.76;51.24
10992;BME280;5549;47.028;15.514;2022-08-21T09:26:25;96260.25;;;23.83;52.18
10992;BME280;5549;47.028;15.514;2022-08-21T09:28:58;96251.56;;;23.87;51.25
10992;BME280;5549;47.028;15.514;2022-08-21T09:31:33;96250.09;;;23.91;50.76
10992;BME280;5549;47.028;15.514;2022-08-21T09:34:07;96244.34;;;23.88;49.98
10992;BME280;5549;47.028;15.514;2022-08-21T09:36:41;96233.56;;;23.94;51.04
10992;BME280;5549;47.028;15.514;2022-08-21T09:39:13;96231.25;;;23.98;51.20
10992;BME280;5549;47.028;15.514;2022-08-21T09:41:56;96238.75;;;23.89;49.78
10992;BME280;5549;47.028;15.514;2022-08-21T09:44:28;96229.97;;;24.00;51.04
10992;BME280;5549;47.028;15.514;2022-08-21T09:46:58;96229.91;;;24.07;50.29
10992;BME280;5549;47.028;15.514;2022-08-21T09:49:29;96225.53;;;24.13;50.73
10992;BME280;5549;47.028;15.514;2022-08-21T09:52:16;96230.44;;;24.16;50.05
10992;BME280;5549;47.028;15.514;2022-08-21T09:54:49;96231.88;;;24.18;50.20
10992;BME280;5549;47.028;15.514;2022-08-21T09:57:26;96231.34;;;24.10;49.31
10992;BME280;5549;47.028;15.514;2022-08-21T10:00:15;96226.94;;;24.15;50.84
10992;BME280;5549;47.028;15.514;2022-08-21T10:02:49;96229.75;;;24.27;50.62
10992;BME280;5549;47.028;15.514;2022-08-21T10:05:22;96223.91;;;24.37;50.95
10992;BME280;5549;47.028;15.514;2022-08-21T10:07:53;96224.66;;;24.44;49.79
10992;BME280;5549;47.028;15.514;2022-08-21T10:10:25;96224.72;;;24.55;50.18
10992;BME280;5549;47.028;15.514;2022-08-21T10:13:01;96224.56;;;24.69;49.50
10992;BME280;5549;47.028;15.514;2022-08-21T10:15:45;96224.84;;;24.79;47.74
10992;BME280;5549;47.028;15.514;2022-08-21T10:18:24;96226.97;;;24.88;49.46
10992;BME280;5549;47.028;15.514;2022-08-21T10:21:02;96223.25;;;24.89;46.39
10992;BME280;5549;47.028;15.514;2022-08-21T10:23:48;96224.53;;;25.05;47.27
10992;BME280;5549;47.028;15.514;2022-08-21T10:26:44;96225.75;;;25.21;46.80
10992;BME280;5549;47.028;15.514;2022-08-21T10:29:32;96213.06;;;25.40;46.54
10992;BME280;5549;47.028;15.514;2022-08-21T10:32:11;96212.25;;;25.51;46.72
10992;BME280;5549;47.028;15.514;2022-08-21T10:34:53;96214.03;;;25.57;45.05
10992;BME280;5549;47.028;15.514;2022-08-21T10:37:31;96217.59;;;25.69;44.27
10992;BME280;5549;47.028;15.514;2022-08-21T10:40:18;96209.50;;;25.69;44.46
10992;BME280;5549;47.028;15.514;2022-08-21T10:43:01;96218.16;;;25.71;42.78
10992;BME280;5549;47.028;15.514;2022-08-21T10:45:48;96207.19;;;25.73;44.34
10992;BME280;5549;47.028;15.514;2022-08-21T10:48:27;96209.16;;;25.66;43.85
10992;BME280;5549;47.028;15.514;2022-08-21T10:51:09;96206.34;;;25.72;43.08
10992;BME280;5549;47.028;15.514;2022-08-21T10:53:54;96209.41;;;25.76;44.47
10992;BME280;5549;47.028;15.514;2022-08-21T10:56:29;96198.53;;;25.82;44.13
10992;BME280;5549;47.028;15.514;2022-08-21T10:59:25;96200.16;;;25.83;43.94
10992;BME280;5549;47.028;15.514;2022-08-21T11:02:00;96190.47;;;25.82;44.84
10992;BME280;5549;47.028;15.514;2022-08-21T11:04:35;96199.22;;;25.89;43.42
10992;BME280;5549;47.028;15.514;2022-08-21T11:07:22;96207.41;;;25.95;44.68
10992;BME280;5549;47.028;15.514;2022-08-21T11:09:57;96204.84;;;26.00;43.40
10992;BME280;5549;47.028;15.514;2022-08-21T11:12:34;96195.94;;;25.99;43.78
10992;BME280;5549;47.028;15.514;2022-08-21T11:15:35;96205.19;;;25.92;43.65
10992;BME280;5549;47.028;15.514;2022-08-21T11:18:23;96200.53;;;25.99;42.08
10992;BME280;5549;47.028;15.514;2022-08-21T11:21:04;96195.28;;;26.04;44.29
10992;BME280;5549;47.028;15.514;2022-08-21T11:23:41;96199.38;;;26.06;41.94
10992;BME280;5549;47.028;15.514;2022-08-21T11:26:17;96193.63;;;26.14;42.12
10992;BME280;5549;47.028;15.514;2022-08-21T11:28:51;96192.69;;;26.20;42.46
10992;BME280;5549;47.028;15.514;2022-08-21T11:31:46;96189.63;;;26.29;42.31
10992;BME280;5549;47.028;15.514;2022-08-21T11:34:39;96191.03;;;26.31;42.93
10992;BME280;5549;47.028;15.514;2022-08-21T11:37:21;96185.44;;;26.21;42.94
10992;BME280;5549;47.028;15.514;2022-08-21T11:40:01;96190.13;;;26.37;42.72
10992;BME280;5549;47.028;15.514;2022-08-21T11:42:38;96181.69;;;26.45;43.08
10992;BME280;5549;47.028;15.514;2022-08-21T11:45:19;96183.78;;;26.43;42.26
10992;BME280;5549;47.028;15.514;2022-08-21T11:48:00;96182.28;;;26.36;43.32
10992;BME280;5549;47.028;15.514;2022-08-21T11:50:36;96184.50;;;26.27;42.07
10992;BME280;5549;47.028;15.514;2022-08-21T11:53:11;96184.50;;;26.39;42.78
10992;BME280;5549;47.028;15.514;2022-08-21T11:55:48;96185.56;;;26.38;42.59
10992;BME280;5549;47.028;15.514;2022-08-21T11:58:25;96181.47;;;26.35;43.23
10992;BME280;5549;47.028;15.514;2022-08-21T12:01:03;96179.47;;;26.42;42.08
10992;BME280;5549;47.028;15.514;2022-08-21T12:03:35;96180.50;;;26.41;42.62
10992;BME280;5549;47.028;15.514;2022-08-21T12:06:07;96188.84;;;26.40;41.56
10992;BME280;5549;47.028;15.514;2022-08-21T12:08:38;96177.59;;;26.43;42.21
10992;BME280;5549;47.028;15.514;2022-08-21T12:11:21;96179.81;;;26.34;41.48
10992;BME280;5549;47.028;15.514;2022-08-21T12:13:56;96171.50;;;26.24;41.66
10992;BME280;5549;47.028;15.514;2022-08-21T12:16:34;96174.19;;;26.24;40.65
10992;BME280;5549;47.028;15.514;2022-08-21T12:19:07;96174.88;;;26.31;41.68
10992;BME280;5549;47.028;15.514;2022-08-21T12:21:49;96172.81;;;26.33;42.04
10992;BME280;5549;47.028;15.514;2022-08-21T12:24:30;96166.69;;;26.26;41.08
10992;BME280;5549;47.028;15.514;2022-08-21T12:27:20;96162.84;;;26.22;41.61
10992;BME280;5549;47.028;15.514;2022-08-21T12:29:58;96165.44;;;26.17;42.63
10992;BME280;5549;47.028;15.514;2022-08-21T12:32:30;96169.53;;;26.08;42.67
10992;BME280;5549;47.028;15.514;2022-08-21T12:35:14;96159.94;;;25.88;41.42
10992;BME280;5549;47.028;15.514;2022-08-21T12:37:47;96161.81;;;25.88;42.20
10992;BME280;5549;47.028;15.514;2022-08-21T12:40:22;96156.88;;;25.73;43.06
10992;BME280;5549;47.028;15.514;2022-08-21T12:42:54;96159.22;;;25.81;43.34
10992;BME280;5549;47.028;15.514;2022-08-21T12:45:30;96155.25;;;25.72;43.24
10992;BME280;5549;47.028;15.514;2022-08-21T12:48:06;96154.91;;;25.80;43.17
10992;BME280;5549;47.028;15.514;2022-08-21T12:50:40;96148.47;;;25.81;42.80
10992;BME280;5549;47.028;15.514;2022-08-21T12:53:23;96144.84;;;25.87;42.34
10992;BME280;5549;47.028;15.514;2022-08-21T12:55:53;96154.09;;;25.68;43.11
10992;BME280;5549;47.028;15.514;2022-08-21T12:58:27;96156.31;;;25.71;42.55
10992;BME280;5549;47.028;15.514;2022-08-21T13:01:02;96156.31;;;25.71;44.21
10992;BME280;5549;47.028;15.514;2022-08-21T13:03:31;96152.56;;;25.72;43.59
10992;BME280;5549;47.028;15.514;2022-08-21T13:06:03;96154.31;;;25.67;42.90
10992;BME280;5549;47.028;15.514;2022-08-21T13:08:34;96150.88;;;25.59;42.87
10992;BME280;5549;47.028;15.514;2022-08-21T13:11:05;96154.28;;;25.55;43.96
10992;BME280;5549;47.028;15.514;2022-08-21T13:13:37;96162.22;;;25.50;43.09
10992;BME280;5549;47.028;15.514;2022-08-21T13:16:07;96164.06;;;25.38;43.08
10992;BME280;5549;47.028;15.514;2022-08-21T13:18:56;96163.94;;;25.33;43.90
10992;BME280;5549;47.028;15.514;2022-08-21T13:21:32;96161.25;;;25.33;44.48
10992;BME280;5549;47.028;15.514;2022-08-21T13:24:18;96164.75;;;25.21;44.48
10992;BME280;5549;47.028;15.514;2022-08-21T13:26:46;96167.41;;;25.10;44.67
10992;BME280;5549;47.028;15.514;2022-08-21T13:29:19;96167.50;;;25.03;45.88